Here is the Quick Look data you requested

The Data originates at the National Weather Service, and is made available here by the UAlbany Department of Atmospheric and Environmental Sciences

Surface Observations

KCHS 151056Z 00000KT 8SM MIFG CLR 19/19 A3016 RMK AO2 SLP211 T01940189=
KCHS 151156Z 00000KT 10SM FEW030 FEW200 20/19 A3016 RMK AO2 SLP213 T02000194
 10206 20194 51013=
KCHS 151256Z 00000KT 10SM CLR 25/23 A3017 RMK AO2 SLP216 T02500228=
KCHS 151356Z 17006KT 10SM FEW025 28/22 A3018 RMK AO2 SLP218 T02780217=
KCHS 151456Z 16011KT 10SM FEW030 29/21 A3018 RMK AO2 SLP219 T02890206 51006=
KCHS 151556Z 16012KT 10SM SCT040 30/19 A3017 RMK AO2 SLP216 T03000194=
KCHS 151656Z 18007KT 10SM SCT040 30/21 A3016 RMK AO2 SLP211 T03000206 $=
KCHS 151756Z 18007KT 10SM SCT040 30/19 A3014 RMK AO2 SLP204 T03000194 10306
 20206 58015=
KCHS 151856Z 16008KT 10SM SCT045 SCT060 29/19 A3011 RMK AO2 SLP197 T02940189=
KCHS 151956Z 16007KT 10SM FEW040 BKN070 29/20 A3010 RMK AO2 SLP193 T02940200=
KCHS 152056Z 18008KT 10SM FEW040 BKN090 28/21 A3011 RMK AO2 SLP195 T02830206
 55008=
KCHS 152156Z 18008KT 10SM FEW035 BKN095 27/21 A3011 RMK AO2 SLP195 T02720211=
KCHS 152256Z 16007KT 10SM BKN090 27/22 A3011 RMK AO2 SLP196 T02670217=
KCHS 152356Z 17004KT 10SM BKN080 26/22 A3012 RMK AO2 SLP199 T02610217 10306
 20261 53004=
KCHS 160056Z 15005KT 10SM BKN075 26/22 A3013 RMK AO2 SLP202 T02560217=
KCHS 160156Z 14004KT 10SM FEW075 SCT090 25/22 A3013 RMK AO2 SLP203 T02500217=
KCHS 160256Z 13005KT 10SM FEW090 24/22 A3012 RMK AO2 SLP200 T02390217 50000=
KCHS 160356Z 23003KT 10SM FEW090 23/22 A3013 RMK AO2 SLP201 T02330222=
KCHS 160456Z 00000KT 10SM CLR 23/22 A3013 RMK AO2 SLP201 T02280217 403060194=
KCHS 160556Z 00000KT 8SM MIFG CLR 22/22 A3012 RMK AO2 SLP197 T02220217 10261
 20222 58003=
KCHS 160656Z 00000KT 8SM MIFG SCT080 22/22 A3011 RMK AO2 SLP196 T02170217=
KCHS 160715Z 00000KT 7SM MIFG FEW003 SCT085 22/22 A3011 RMK AO2 T02220217=
KCHS 160715Z 00000KT 7SM MIFG FEW003 SCT085 22/22 A3011=
KCHS 160715Z 00000KT 7SM MIFG FEW003 SCT085 22/22 A3011 RMK AO2 T02220217=
KCHS 160756Z 00000KT 7SM MIFG FEW003 SCT080 22/22 A3010 RMK AO2 SLP191
 T02220217=
KCHS 160856Z 16005KT 6SM BR FEW003 BKN080 22/21 A3009 RMK AO2 SLP187 T02170211
 58010=
KCHS 160956Z 00000KT 7SM MIFG FEW003 SCT080 23/23 A3010 RMK AO2 SLP193
 T02280228=
KCHS 161056Z 36003KT 7SM BCFG FEW003 FEW011 22/22 A3011 RMK AO2 SLP197
 T02220217=
KCHS 161136Z 00000KT 5SM R15/3000VP6000FT BR SCT003 BKN010 22/22 A3013 RMK AO2
 VIS SW 2 T02220222=
KCHS 161136Z 00000KT 5SM R15/3000VP6000FT BR SCT003 BKN010 22/22 A3013=
KCHS 161136Z 00000KT 5SM R15/3000VP6000FT BR SCT003 BKN010 22/22 A3013 RMK AO2
 VIS SW 2 T02220222=
KCHS 161156Z 00000KT 10SM FEW003 BKN010 23/23 A3013 RMK AO2 SLP202 T02280228
 10233 20211 52015=
KCHS 161217Z 28003KT 3/4SM R15/2200VP6000FT BR BKN004 BKN010 24/23 A3014 RMK
 AO2 SFC VIS 3 VIS SW 1 T02390233=
KCHS 161217Z 28003KT 3/4SM R15/2200VP6000FT BR BKN004 BKN010 24/23 A3014=
KCHS 161217Z 28003KT 3/4SM R15/2200VP6000FT BR BKN004 BKN010 24/23 A3014 RMK
 AO2 SFC VIS 3 VIS SW 1 T02390233=
KCHS 161220Z 28003KT 1/8SM R15/1800V5000FT BR BKN002 BKN010 24/23 A3014=
KCHS 161220Z 28003KT 1/8SM R15/1800V5000FT BR BKN002 BKN010 24/23 A3014 RMK AO2
 SFC VIS 3 VIS SW 1 T02390233=
KCHS 161228Z 28003KT 1/8SM R15/1400V2000FT FG VV002 24/23 A3014=
KCHS 161228Z 28003KT 1/8SM R15/1400V2000FT FG VV002 24/23 A3014 RMK AO2 SFC VIS
 1/2 T02390233=
KCHS 161250Z 27004KT 1/4SM R15/1200V5000FT FG VV002 23/23 A3015 RMK AO2 SFC VIS
 1/2 T02330233=
KCHS 161250Z 27004KT 1/4SM R15/1200V5000FT FG VV002 23/23 A3015=
KCHS 161250Z 27004KT 1/4SM R15/1200V5000FT FG VV002 23/23 A3015 RMK AO2 SFC VIS
 1/2 T02330233=
KCHS 161256Z 26005KT 1/4SM R15/1800VP6000FT FG VV002 23/23 A3015 RMK AO2 SFC
 VIS 1/2 SLP209 T02330233=
KCHS 161325Z 27005KT 1/2SM R15/P6000FT BR BKN002 BKN010 23/23 A3016 RMK AO2 SFC
 VIS 1 T02330233=
KCHS 161325Z 27005KT 1/2SM R15/P6000FT BR BKN002 BKN010 23/23 A3016=
KCHS 161325Z 27005KT 1/2SM R15/P6000FT BR BKN002 BKN010 23/23 A3016 RMK AO2 SFC
 VIS 1 T02330233=
KCHS 161334Z 26005KT 1SM R15/P6000FT BR BKN002 BKN010 24/24 A3016 RMK AO2 SFC
 VIS 2 T02390239=
KCHS 161334Z 26005KT 1SM R15/P6000FT BR BKN002 BKN010 24/24 A3016=
KCHS 161334Z 26005KT 1SM R15/P6000FT BR BKN002 BKN010 24/24 A3016 RMK AO2 SFC
 VIS 2 T02390239=
KCHS 161345Z 26004KT 5SM BR BKN005 24/24 A3016 RMK AO2 T02390239=
KCHS 161345Z 26004KT 5SM BR BKN005 24/24 A3016=
KCHS 161345Z 26004KT 5SM BR BKN005 24/24 A3016 RMK AO2 T02390239=
KCHS 161347Z 26004KT 10SM SCT006 24/24 A3016 RMK AO2 T02390239=
KCHS 161347Z 26004KT 10SM SCT006 24/24 A3016=
KCHS 161347Z 26004KT 10SM SCT006 24/24 A3016 RMK AO2 T02390239=
KCHS 161356Z 25006KT 10SM SCT006 24/24 A3016 RMK AO2 SLP212 T02440239=
KCHS 161456Z 23009KT 10SM FEW015 27/23 A3016 RMK AO2 SLP211 T02720228 50009=
KCHS 161556Z 25006KT 10SM FEW030 29/22 A3015 RMK AO2 SLP207 T02890222=
KCHS 161656Z 25007KT 220V280 10SM FEW250 31/22 A3012 RMK AO2 SLP199 T03060222=
KCHS 161756Z VRB03KT 10SM FEW035 31/22 A3009 RMK AO2 SLP189 T03110222 10317
 20228 58022=
KCHS 161856Z 26007KT 10SM SCT040 32/22 A3007 RMK AO2 SLP180 T03220222=
KCHS 161956Z 24005KT 10SM SCT040 32/22 A3005 RMK AO2 SLP176 T03170217=
KCHS 162056Z 20006KT 10SM FEW040 32/21 A3005 RMK AO2 SLP176 T03170211 56014=
KCHS 162156Z 20008KT 10SM FEW035 SCT200 30/23 A3006 RMK AO2 SLP178 T03000233=
KCHS 162256Z 20009KT 10SM FEW030 FEW200 27/23 A3007 RMK AO2 SLP182 T02670233=